Time;durP1;ratioP1;P1;durP2;ratioP2;P2;SDS_P1;SDS_P2;PMS_P1;PMS_P2;Temp;Humidity;BMP_temperature;BMP_pressure;BME280_temperature;BME280_humidity;BME280_pressure;Samples;Min_cycle;Max_cycle;Signal;HPM_P1;HPM_P2
2021/05/11 00:02:07;;;;;;;13.65;5.47;;;;;;;10.06;53.20;101216.44;1681714;83;21220;-62
2021/05/11 00:04:35;;;;;;;14.07;6.40;;;;;;;10.07;53.23;101211.56;1694801;82;21249;-63
2021/05/11 00:07:03;;;;;;;12.13;5.62;;;;;;;10.09;53.14;101209.67;1676613;82;21651;-62
2021/05/11 00:09:30;;;;;;;10.75;6.22;;;;;;;10.10;53.11;101206.56;1685704;82;21204;-62
2021/05/11 00:11:57;;;;;;;14.68;7.12;;;;;;;10.10;53.45;101199.98;1675403;83;21177;-63
2021/05/11 00:14:25;;;;;;;14.53;5.67;;;;;;;10.10;53.80;101203.45;1692798;82;21184;-64
2021/05/11 00:16:53;;;;;;;10.82;5.95;;;;;;;10.09;54.13;101201.79;1679008;82;21140;-62
2021/05/11 00:19:21;;;;;;;11.65;5.85;;;;;;;10.08;54.12;101199.25;1684824;82;21784;-66
2021/05/11 00:21:49;;;;;;;13.93;6.80;;;;;;;10.07;54.21;101194.48;1678675;83;21415;-63
2021/05/11 00:24:17;;;;;;;11.93;5.22;;;;;;;10.04;54.30;101194.19;1672567;83;21225;-63
2021/05/11 00:26:45;;;;;;;9.80;5.50;;;;;;;10.03;54.41;101189.03;1695087;82;21216;-62
2021/05/11 00:29:13;;;;;;;13.22;6.30;;;;;;;10.00;54.73;101186.14;1702182;82;21780;-62
2021/05/11 00:31:41;;;;;;;10.20;5.40;;;;;;;9.96;54.87;101180.69;1697300;82;21187;-64
2021/05/11 00:34:08;;;;;;;15.60;6.05;;;;;;;9.93;55.19;101186.14;1697435;82;21192;-64
2021/05/11 00:36:35;;;;;;;12.25;5.90;;;;;;;9.88;55.28;101182.14;1687886;82;21512;-64
2021/05/11 00:39:04;;;;;;;16.87;6.17;;;;;;;9.84;54.94;101178.38;1693619;82;21592;-62
2021/05/11 00:41:31;;;;;;;9.25;5.30;;;;;;;9.81;54.71;101181.20;1698360;82;21197;-62
2021/05/11 00:44:00;;;;;;;14.10;5.80;;;;;;;9.81;54.29;101179.06;1678006;83;21148;-62
2021/05/11 00:46:30;;;;;;;15.58;6.00;;;;;;;9.81;54.17;101176.43;1667958;84;21193;-63
2021/05/11 00:48:58;;;;;;;11.53;6.03;;;;;;;9.80;54.02;101171.66;1689904;82;21221;-64
2021/05/11 00:51:25;;;;;;;12.75;5.60;;;;;;;9.81;53.84;101173.80;1673810;83;21184;-61
2021/05/11 00:53:53;;;;;;;18.00;6.53;;;;;;;9.80;53.76;101174.73;1668940;83;21136;-61
2021/05/11 00:56:21;;;;;;;16.12;5.67;;;;;;;9.79;53.81;101175.21;1674304;83;21181;-62
2021/05/11 00:58:49;;;;;;;12.88;5.92;;;;;;;9.79;54.08;101175.21;1696809;82;21193;-63
2021/05/11 01:01:16;;;;;;;12.00;6.40;;;;;;;9.77;54.45;101169.22;1699899;82;21202;-62
2021/05/11 01:03:43;;;;;;;12.58;6.20;;;;;;;9.75;54.86;101171.11;1699675;82;21180;-62
2021/05/11 01:06:11;;;;;;;10.70;5.78;;;;;;;9.73;55.09;101171.65;1690010;84;21177;-62
2021/05/11 01:08:38;;;;;;;10.40;5.42;;;;;;;9.72;55.26;101167.36;1681057;83;21584;-62
2021/05/11 01:11:06;;;;;;;13.40;4.97;;;;;;;9.72;55.37;101169.98;1666145;84;21188;-62
2021/05/11 01:13:34;;;;;;;12.65;6.20;;;;;;;9.71;55.46;101169.59;1669736;85;21787;-62
2021/05/11 01:16:02;;;;;;;15.10;6.22;;;;;;;9.71;55.55;101164.82;1657057;84;21897;-61
2021/05/11 01:18:32;;;;;;;13.15;6.97;;;;;;;9.69;55.81;101164.09;1663515;84;21650;-62
2021/05/11 01:21:13;;;;;;;10.65;6.05;;;;;;;9.67;55.98;101168.13;1660412;84;21628;-62
2021/05/11 01:23:55;;;;;;;12.28;6.37;;;;;;;9.67;56.17;101168.13;1656216;86;21221;-67
2021/05/11 01:26:16;;;;;;;15.27;6.40;;;;;;;9.67;56.40;101166.80;1628989;84;21244;-62
2021/05/11 01:28:50;;;;;;;14.05;6.65;;;;;;;9.67;56.32;101177.31;1703696;84;21485;-61
2021/05/11 01:45:17;;;;;;;14.20;6.85;;;;;;;9.40;56.43;101160.20;1834811;76;21119;-65
2021/05/11 01:50:03;;;;;;;10.80;6.10;;;;;;;9.37;56.65;101159.08;1791334;78;21184;-61
2021/05/11 01:52:33;;;;;;;12.37;6.00;;;;;;;9.34;56.56;101160.58;1804201;77;21077;-63
2021/05/11 02:25:00;;;;;;;9.93;5.50;;;;;;;9.38;58.52;101169.49;1740967;81;21505;-62
2021/05/11 02:27:27;;;;;;;18.15;6.17;;;;;;;9.38;58.64;101166.87;1738568;81;22128;-63
2021/05/11 02:29:55;;;;;;;14.00;5.53;;;;;;;9.39;58.76;101169.02;1743332;81;21635;-64
2021/05/11 02:32:22;;;;;;;8.48;5.33;;;;;;;9.38;58.83;101166.00;1705376;82;21168;-66
2021/05/11 02:34:50;;;;;;;11.22;6.00;;;;;;;9.39;59.05;101163.76;1737231;80;21264;-69
2021/05/11 02:37:17;;;;;;;12.37;6.12;;;;;;;9.36;59.29;101162.63;1718228;81;21209;-63
2021/05/11 02:39:44;;;;;;;11.40;6.95;;;;;;;9.35;59.67;101162.28;1742517;81;21658;-62
2021/05/11 02:42:13;;;;;;;11.70;6.20;;;;;;;9.37;59.97;101155.14;1715054;82;21662;-65
2021/05/11 02:44:46;;;;;;;9.58;5.65;;;;;;;9.37;60.27;101157.77;1713790;81;21219;-63
2021/05/11 02:47:12;;;;;;;9.43;5.90;;;;;;;9.37;60.56;101161.23;1708086;81;22644;-63
2021/05/11 02:49:44;;;;;;;10.80;6.35;;;;;;;9.35;60.55;101159.65;1723862;82;21204;-63
2021/05/11 02:52:11;;;;;;;11.35;6.22;;;;;;;9.35;60.65;101164.42;1738458;80;21184;-63
2021/05/11 02:54:39;;;;;;;10.68;5.87;;;;;;;9.34;60.76;101152.70;1719080;82;21184;-63
2021/05/11 02:57:07;;;;;;;10.32;5.33;;;;;;;9.39;60.59;101155.40;1713742;82;21475;-65
2021/05/11 02:59:37;;;;;;;8.35;4.47;;;;;;;9.49;60.23;101156.98;1717025;81;22371;-63
2021/05/11 03:02:04;;;;;;;9.28;5.15;;;;;;;9.60;59.81;101151.03;1706934;82;21157;-62
2021/05/11 03:04:32;;;;;;;12.90;5.85;;;;;;;9.70;59.39;101152.16;1702310;83;21217;-63
2021/05/11 03:07:00;;;;;;;11.05;5.65;;;;;;;9.77;59.12;101156.08;1689484;82;21225;-66
2021/05/11 03:09:28;;;;;;;10.10;5.95;;;;;;;9.83;58.82;101155.69;1659849;84;21213;-63
2021/05/11 03:11:56;;;;;;;9.58;5.97;;;;;;;9.89;58.85;101151.81;1657084;84;22736;-63
2021/05/11 03:14:23;;;;;;;10.53;5.47;;;;;;;9.95;58.58;101150.11;1672448;82;21208;-63
2021/05/11 03:16:53;;;;;;;8.90;5.37;;;;;;;10.02;58.27;101148.75;1736562;80;21193;-65
2021/05/11 03:19:21;;;;;;;12.78;5.47;;;;;;;10.08;58.05;101153.23;1734434;80;21220;-64
2021/05/11 03:21:49;;;;;;;12.07;6.20;;;;;;;10.08;57.92;101150.61;1725382;80;21199;-64
2021/05/11 03:24:16;;;;;;;14.15;5.95;;;;;;;10.07;57.96;101151.09;1723377;80;22409;-67
2021/05/11 03:26:44;;;;;;;8.70;4.78;;;;;;;10.06;57.89;101150.70;1715020;80;21139;-63
2021/05/11 03:29:13;;;;;;;10.38;5.12;;;;;;;10.05;57.99;101152.95;1740805;80;21204;-64
2021/05/11 03:31:42;;;;;;;9.53;5.30;;;;;;;10.06;57.96;101145.92;1736650;80;21175;-63
2021/05/11 03:34:09;;;;;;;9.45;4.85;;;;;;;10.07;58.08;101147.14;1739257;80;21458;-64
2021/05/11 03:36:38;;;;;;;9.25;5.47;;;;;;;10.11;58.18;101144.67;1733453;80;21203;-62
2021/05/11 03:39:07;;;;;;;8.93;5.20;;;;;;;10.15;58.30;101142.20;1731137;81;21361;-63
2021/05/11 03:44:31;;;;;;;11.18;6.20;;;;;;;10.37;58.28;101148.69;1861545;75;22712;-69
2021/05/11 03:47:07;;;;;;;9.43;5.20;;;;;;;10.55;58.06;101144.82;1827863;76;22857;-64
2021/05/11 03:49:42;;;;;;;11.50;5.40;;;;;;;10.64;58.27;101140.75;1874721;76;22665;-64
2021/05/11 03:52:27;;;;;;;9.38;5.28;;;;;;;10.68;57.55;101154.54;1784654;78;21180;-63
2021/05/11 03:55:03;;;;;;;10.43;4.90;;;;;;;10.76;57.60;101153.55;1869587;74;23347;-65
2021/05/11 03:57:45;;;;;;;9.08;4.80;;;;;;;10.81;57.72;101150.12;1824737;76;22699;-67
2021/05/11 04:00:30;;;;;;;8.60;4.60;;;;;;;10.82;57.66;101154.91;1800527;79;22341;-68
2021/05/11 04:03:12;;;;;;;7.72;4.08;;;;;;;10.90;57.94;101153.42;1861711;75;22679;-65
2021/05/11 04:05:50;;;;;;;11.33;4.80;;;;;;;10.97;57.91;101161.25;1826791;76;22767;-63
2021/05/11 04:08:47;;;;;;;7.03;3.77;;;;;;;10.99;57.65;101159.00;1790979;77;21145;-66
2021/05/11 04:16:52;;;;;;;7.67;4.07;;;;;;;11.37;50.45;101158.95;1742226;80;21195;-63
2021/05/11 04:19:28;;;;;;;8.63;3.72;;;;;;;11.64;48.20;101145.58;1861517;75;22603;-61
2021/05/11 04:22:03;;;;;;;8.15;3.60;;;;;;;11.64;48.12;101148.20;1754765;79;22761;-62
2021/05/11 04:24:45;;;;;;;10.48;3.55;;;;;;;11.63;47.39;101147.86;1881076;74;22670;-61
2021/05/11 04:27:24;;;;;;;5.90;3.00;;;;;;;11.66;47.50;101141.52;1758236;79;22844;-67
2021/05/11 04:30:09;;;;;;;9.18;3.80;;;;;;;11.68;46.00;101144.88;1822471;76;22757;-63
2021/05/11 04:32:45;;;;;;;5.20;2.67;;;;;;;11.74;45.89;101139.65;1864128;75;22601;-61
2021/05/11 04:35:21;;;;;;;7.95;2.62;;;;;;;11.78;46.65;101147.20;1754287;79;22758;-64
2021/05/11 04:38:06;;;;;;;7.28;3.25;;;;;;;11.80;46.22;101144.00;1702478;82;21164;-62
2021/05/11 04:40:41;;;;;;;7.53;3.60;;;;;;;11.89;46.73;101142.48;1882568;74;22836;-65
2021/05/11 04:43:22;;;;;;;7.50;3.35;;;;;;;11.92;46.31;101134.38;1863894;74;22685;-60
2021/05/11 04:48:59;;;;;;;7.65;3.70;;;;;;;11.95;46.87;101134.12;1839078;77;21145;-61
2021/05/11 04:51:34;;;;;;;6.15;3.55;;;;;;;12.03;47.01;101131.77;1874887;75;23344;-64
2021/05/11 04:54:16;;;;;;;7.87;4.05;;;;;;;12.10;46.81;101128.68;1862614;75;23181;-61
2021/05/11 04:58:45;;;;;;;7.03;3.60;;;;;;;12.24;47.10;101124.05;1874420;76;22612;-64
2021/05/11 05:01:20;;;;;;;7.95;3.87;;;;;;;12.29;47.30;101121.53;1816334;76;22770;-65
2021/05/11 05:03:58;;;;;;;8.30;3.75;;;;;;;12.40;46.75;101118.93;1874328;74;22741;-64
2021/05/11 05:06:32;;;;;;;8.47;3.83;;;;;;;12.50;45.03;101109.84;1844342;76;29109;-63
2021/05/11 05:09:18;;;;;;;7.78;3.77;;;;;;;12.74;44.25;101108.41;1866627;76;20978;-63
2021/05/11 05:11:53;;;;;;;5.60;2.72;;;;;;;13.03;44.07;101110.11;1838324;76;24175;-66
2021/05/11 05:14:28;;;;;;;5.80;2.67;;;;;;;13.06;43.67;101109.84;1751081;79;22814;-65
2021/05/11 05:17:03;;;;;;;6.30;3.35;;;;;;;13.12;43.58;101109.37;1832725;76;22752;-67
2021/05/11 05:19:38;;;;;;;6.10;2.90;;;;;;;13.18;42.94;101112.86;1870816;75;22673;-66
2021/05/11 05:22:23;;;;;;;8.53;3.25;;;;;;;13.22;45.03;101110.81;1807142;77;21119;-65
2021/05/11 05:25:06;;;;;;;6.30;3.10;;;;;;;13.38;44.86;101115.27;1874955;74;22629;-62
2021/05/11 05:27:43;;;;;;;9.13;3.63;;;;;;;13.53;44.30;101113.19;1843282;75;39321;-64
2021/05/11 05:30:19;;;;;;;5.05;2.45;;;;;;;13.88;42.87;101106.80;1874905;74;22633;-63
2021/05/11 05:33:05;;;;;;;5.80;2.50;;;;;;;14.09;41.54;101106.84;1806536;77;21102;-64
2021/05/11 05:35:42;;;;;;;6.05;3.00;;;;;;;14.16;41.03;101102.37;1877212;74;22688;-63
2021/05/11 05:38:23;;;;;;;7.08;2.70;;;;;;;14.19;40.17;101095.00;1823696;76;22719;-68
2021/05/11 05:41:10;;;;;;;8.95;3.12;;;;;;;14.24;39.73;101094.13;1827462;76;24725;-66
2021/05/11 05:43:43;;;;;;;5.53;2.62;;;;;;;14.32;40.21;101089.49;1820826;76;22712;-65
2021/05/11 05:46:18;;;;;;;6.22;2.37;;;;;;;14.45;39.84;101090.63;1872101;74;23140;-63
2021/05/11 05:48:54;;;;;;;6.08;2.80;;;;;;;14.54;38.26;101090.32;1867647;75;22665;-66
2021/05/11 05:51:30;;;;;;;8.03;2.80;;;;;;;14.61;38.67;101087.06;1752406;78;23357;-65
2021/05/11 05:54:05;;;;;;;7.60;2.62;;;;;;;14.67;37.54;101085.19;1829050;76;22702;-61
2021/05/11 05:56:41;;;;;;;7.45;2.90;;;;;;;14.76;37.18;101077.41;1823807;76;22729;-67
2021/05/11 05:59:26;;;;;;;9.43;2.98;;;;;;;14.82;36.78;101086.17;1800597;77;21171;-66
2021/05/11 06:02:02;;;;;;;5.00;2.35;;;;;;;14.93;36.64;101083.89;1870851;74;22710;-61
2021/05/11 06:04:38;;;;;;;7.42;2.40;;;;;;;15.00;37.32;101085.89;1871035;74;22696;-63
2021/05/11 06:07:24;;;;;;;7.30;2.62;;;;;;;15.00;37.39;101089.86;1839384;77;21139;-64
2021/05/11 06:09:59;;;;;;;4.40;2.02;;;;;;;15.09;36.76;101084.73;1867857;74;22904;-65
2021/05/11 06:12:47;;;;;;;6.28;2.62;;;;;;;15.18;36.44;101094.50;1854363;74;22764;-64
2021/05/11 06:17:49;;;;;;;4.80;1.87;;;;;;;15.37;35.61;101087.94;1877585;74;22566;-67
2021/05/11 06:20:24;;;;;;;4.37;1.95;;;;;;;15.46;35.55;101091.57;1860417;74;22996;-69
2021/05/11 06:22:59;;;;;;;5.92;2.02;;;;;;;15.54;35.13;101093.05;1817538;75;22727;-69
2021/05/11 06:25:50;;;;;;;6.42;2.58;;;;;;;15.64;34.27;101094.89;1873877;74;22674;-65
2021/05/11 06:28:26;;;;;;;13.90;2.33;;;;;;;15.72;34.60;101090.56;1847225;74;22876;-66
2021/05/11 06:31:13;;;;;;;6.85;1.92;;;;;;;15.82;35.07;101086.62;1832873;76;22112;-66
2021/05/11 06:33:59;;;;;;;4.17;1.80;;;;;;;15.93;35.17;101089.61;1823307;76;23374;-69
2021/05/11 06:36:35;;;;;;;5.72;2.20;;;;;;;16.00;35.33;101076.11;1852786;76;28017;-64
2021/05/11 06:39:21;;;;;;;5.17;2.22;;;;;;;16.24;34.59;101073.48;1837768;75;21164;-62
2021/05/11 06:42:05;;;;;;;8.43;2.40;;;;;;;16.56;32.83;101068.30;1798850;77;22789;-64
2021/05/11 06:50:42;;;;;;;4.47;1.42;;;;;;;17.11;32.35;101062.22;1869429;74;22663;-69
2021/05/11 06:53:15;;;;;;;5.80;2.27;;;;;;;17.11;31.78;101059.55;1868748;74;22756;-65
2021/05/11 06:55:50;;;;;;;4.17;1.57;;;;;;;17.09;31.41;101058.38;1792483;77;22969;-67
2021/05/11 06:58:29;;;;;;;4.75;1.32;;;;;;;17.09;29.56;101059.70;1794659;78;22794;-64
2021/05/11 07:01:04;;;;;;;3.98;1.40;;;;;;;17.14;28.10;101055.27;1874153;74;22759;-69
2021/05/11 07:03:50;;;;;;;3.58;1.12;;;;;;;17.15;28.21;101048.48;1785163;78;21167;-66
2021/05/11 07:06:31;;;;;;;5.60;1.60;;;;;;;17.25;27.74;101052.41;1866166;74;22947;-64
2021/05/11 07:09:09;;;;;;;3.98;1.25;;;;;;;17.33;28.44;101052.50;1871688;75;22809;-70
2021/05/11 07:14:30;;;;;;;3.47;1.30;;;;;;;17.39;27.48;101047.06;1813325;77;21211;-70
2021/05/11 07:17:05;;;;;;;4.22;1.50;;;;;;;17.44;26.72;101048.77;1822087;75;22774;-65
2021/05/11 07:19:40;;;;;;;6.20;1.60;;;;;;;17.49;27.21;101046.48;1822011;77;22792;-60
2021/05/11 07:22:25;;;;;;;4.00;1.50;;;;;;;17.56;27.32;101045.39;1872990;74;22728;-65
2021/05/11 07:25:14;;;;;;;5.22;1.72;;;;;;;17.58;27.48;101038.08;1751066;80;21183;-67
2021/05/11 07:30:52;;;;;;;6.67;1.85;;;;;;;17.71;26.27;101027.06;1827746;76;22781;-65
2021/05/11 07:33:44;;;;;;;6.15;1.65;;;;;;;17.72;25.47;101018.92;1763427;77;21108;-66
2021/05/11 07:36:18;;;;;;;4.42;1.90;;;;;;;17.82;25.77;101016.17;1808284;77;22718;-63
2021/05/11 07:38:54;;;;;;;6.53;1.90;;;;;;;17.90;26.30;101010.92;1869997;74;22858;-65
2021/05/11 07:41:29;;;;;;;4.72;1.77;;;;;;;17.99;26.75;100996.69;1828891;77;22701;-68
2021/05/11 08:17:41;;;;;;;4.35;1.80;;;;;;;18.54;30.10;100990.16;1811385;77;22732;-67
2021/05/11 08:40:16;;;;;;;5.28;1.98;;;;;;;18.92;30.62;100972.48;1715420;81;22736;-65
2021/05/11 08:43:08;;;;;;;5.47;1.70;;;;;;;18.97;29.79;100967.48;1832529;76;22867;-67
2021/05/11 08:45:45;;;;;;;4.10;1.55;;;;;;;19.06;30.41;100963.86;1868485;75;22663;-67
2021/05/11 08:48:33;;;;;;;5.62;1.80;;;;;;;19.11;29.98;100961.52;1838062;76;22094;-69
2021/05/11 10:36:21;;;;;;;5.55;1.85;;;;;;;20.92;29.89;100840.77;1873076;74;22663;-68
2021/05/11 10:39:05;;;;;;;4.95;1.85;;;;;;;21.09;29.69;100841.97;1875520;74;22646;-63
2021/05/11 10:47:01;;;;;;;5.90;1.60;;;;;;;21.29;29.25;100841.78;1858157;74;22744;-64
2021/05/11 10:49:38;;;;;;;4.33;1.42;;;;;;;21.39;30.27;100832.66;1823476;76;22693;-64
2021/05/11 10:52:25;;;;;;;5.92;1.95;;;;;;;21.48;29.56;100827.56;1860720;75;22676;-64
2021/05/11 10:55:40;;;;;;;5.37;1.77;;;;;;;21.61;29.15;100816.23;1796664;77;22819;-68
2021/05/11 10:58:17;;;;;;;5.83;2.27;;;;;;;21.65;29.32;100826.39;1853498;74;27787;-65
2021/05/11 11:00:59;;;;;;;9.70;2.47;;;;;;;21.92;28.84;100822.70;1867805;74;23351;-65
2021/05/11 11:03:34;;;;;;;4.62;1.47;;;;;;;22.05;28.19;100819.36;1875046;75;22723;-65
2021/05/11 11:06:09;;;;;;;5.92;1.92;;;;;;;22.01;29.15;100824.79;1830435;76;22786;-67
2021/05/11 11:19:10;;;;;;;5.53;1.50;;;;;;;22.10;29.50;100787.98;1845415;73;22795;-68
2021/05/11 11:23:32;;;;;;;4.70;1.80;;;;;;;22.10;29.36;100786.13;1819124;76;22783;-65
2021/05/11 11:24:37;;;;;;;4.05;1.47;;;;;;;22.12;29.70;100780.58;1793195;77;21653;-66
2021/05/11 11:27:13;;;;;;;5.33;1.77;;;;;;;22.22;30.14;100779.77;1740672;79;27903;-68
2021/05/11 11:30:03;;;;;;;4.80;1.50;;;;;;;22.52;29.27;100779.17;1820097;77;22844;-66
2021/05/11 11:32:45;;;;;;;5.85;1.87;;;;;;;22.75;29.38;100770.92;1833217;76;22667;-67
2021/05/11 11:35:20;;;;;;;5.03;1.90;;;;;;;22.71;28.75;100772.34;1820416;76;24281;-67
2021/05/11 11:37:57;;;;;;;3.90;1.98;;;;;;;22.71;29.12;100767.47;1826821;76;22683;-66
2021/05/11 11:40:40;;;;;;;7.90;2.25;;;;;;;22.71;28.77;100765.64;1821350;78;22797;-67
2021/05/11 11:43:27;;;;;;;;;;;;;;;22.71;28.62;100766.98;1788839;79;21164;-66
2021/05/11 11:46:08;;;;;;;6.30;1.85;;;;;;;22.75;27.88;100756.69;1875317;75;22675;-66
2021/05/11 11:48:56;;;;;;;6.72;1.30;;;;;;;22.71;27.86;100753.57;1869150;74;22589;-66
2021/05/11 11:51:38;;;;;;;4.55;1.85;;;;;;;22.76;28.45;100756.50;1747023;79;22848;-66
2021/05/11 11:54:37;;;;;;;;;;;;;;;22.82;28.93;100750.33;1731072;82;21207;-66
2021/05/11 12:00:36;;;;;;;4.97;1.40;;;;;;;23.05;28.66;100749.28;1796388;78;22854;-63
2021/05/11 12:03:24;;;;;;;4.50;1.87;;;;;;;23.06;28.91;100738.02;1771715;79;21133;-62
2021/05/11 12:05:59;;;;;;;9.63;2.27;;;;;;;23.12;29.27;100741.30;1863784;74;27790;-63
2021/05/11 12:08:34;;;;;;;5.30;1.80;;;;;;;23.34;28.60;100740.18;1871088;75;23238;-62
2021/05/11 12:11:10;;;;;;;3.50;1.52;;;;;;;23.49;27.75;100738.71;1823009;76;22767;-68
2021/05/11 12:13:48;;;;;;;4.50;1.60;;;;;;;23.48;28.12;100735.70;1826565;76;23691;-66
2021/05/11 12:16:44;;;;;;;3.72;1.50;;;;;;;23.46;28.23;100747.16;1738517;79;21168;-66
2021/05/11 12:19:23;;;;;;;3.90;1.40;;;;;;;23.48;28.43;100734.36;1875735;74;22750;-66
2021/05/11 12:22:06;;;;;;;3.77;1.50;;;;;;;23.48;26.94;100732.19;1757211;79;22711;-61
2021/05/11 12:24:58;;;;;;;4.58;1.72;;;;;;;23.50;28.27;100736.35;1865905;74;22628;-63
2021/05/11 12:27:43;;;;;;;3.87;1.47;;;;;;;23.50;27.30;100736.35;1808026;76;21195;-62
2021/05/11 12:30:38;;;;;;;5.35;1.47;;;;;;;23.53;27.44;100723.84;1867379;75;22641;-62
2021/05/11 12:33:40;;;;;;;4.22;1.47;;;;;;;23.59;27.87;100722.72;1867010;74;23282;-65
2021/05/11 12:36:28;;;;;;;3.37;1.32;;;;;;;23.70;28.27;100732.91;1797486;78;22969;-64
2021/05/11 12:39:23;;;;;;;4.25;1.65;;;;;;;23.76;28.18;100721.36;1769955;78;21202;-64
2021/05/11 12:42:22;;;;;;;3.72;1.50;;;;;;;23.85;27.49;100708.08;1760256;79;21237;-66
2021/05/11 12:45:14;;;;;;;6.30;1.62;;;;;;;23.92;27.90;100706.75;1866992;74;24220;-67
2021/05/11 12:48:04;;;;;;;4.20;2.08;;;;;;;23.95;27.75;100696.94;1801675;77;22734;-66
2021/05/11 12:51:05;;;;;;;5.20;1.98;;;;;;;24.06;28.24;100695.53;1828290;76;22710;-64
2021/05/11 12:53:47;;;;;;;5.47;1.47;;;;;;;24.18;28.54;100696.58;1869950;74;22647;-66
2021/05/11 12:57:04;;;;;;;4.67;1.55;;;;;;;24.25;27.84;100695.23;1814375;77;21172;-67
2021/05/11 12:59:58;;;;;;;4.75;1.82;;;;;;;24.36;27.39;100679.84;1870234;74;22768;-63
2021/05/11 13:22:16;;;;;;;6.87;1.42;;;;;;;24.51;28.11;100667.53;1757665;78;22809;-66
2021/05/11 13:31:02;;;;;;;6.28;1.65;;;;;;;24.63;27.19;100660.51;1716945;81;21207;-65
2021/05/11 13:33:51;;;;;;;3.92;1.17;;;;;;;24.70;28.32;100656.99;1791898;77;22890;-63
2021/05/11 13:36:24;;;;;;;4.35;1.42;;;;;;;24.76;28.49;100656.95;1837458;76;22818;-65
2021/05/11 13:39:10;;;;;;;4.12;1.50;;;;;;;24.88;28.47;100666.58;1795589;77;21239;-63
2021/05/11 13:41:46;;;;;;;4.87;1.82;;;;;;;25.13;27.76;100660.48;1866364;75;22761;-59
2021/05/11 14:05:29;;;;;;;3.77;1.40;;;;;;;31.21;21.30;100638.22;1855317;75;23173;-67
2021/05/11 14:08:14;;;;;;;;;;;;;;;31.56;20.44;100638.36;1822772;77;21452;-69
2021/05/11 14:10:55;;;;;;;2.58;0.93;;;;;;;32.16;20.21;100637.83;1823487;76;22754;-67
2021/05/11 14:13:41;;;;;;;;;;;;;;;32.71;19.48;100640.37;1790784;78;21210;-68
2021/05/11 14:16:32;;;;;;;6.40;1.40;;;;;;;33.05;19.41;100633.16;1823788;76;22739;-67
2021/05/11 14:19:19;;;;;;;3.70;1.32;;;;;;;33.14;18.70;100617.94;1797799;77;21229;-63
2021/05/11 14:21:55;;;;;;;4.63;1.50;;;;;;;33.48;18.53;100614.77;1782227;77;28901;-68
2021/05/11 14:24:40;;;;;;;2.90;1.20;;;;;;;33.90;18.69;100613.72;1713056;81;21243;-66
2021/05/11 14:27:28;;;;;;;5.62;1.60;;;;;;;34.60;18.03;100611.17;1875037;74;23131;-74
2021/05/11 14:30:10;;;;;;;6.28;2.12;;;;;;;34.59;17.99;100605.42;1793099;77;22642;-66
2021/05/11 14:32:45;;;;;;;8.03;1.97;;;;;;;34.56;17.76;100610.63;1809762;76;27748;-68
2021/05/11 14:35:20;;;;;;;4.55;1.50;;;;;;;34.97;17.12;100603.69;1824928;76;22798;-70
2021/05/11 14:38:05;;;;;;;4.65;1.37;;;;;;;35.22;17.31;100607.35;1864953;74;22794;-66
2021/05/11 14:40:41;;;;;;;3.35;1.47;;;;;;;35.11;17.29;100602.50;1792873;78;22714;-66
2021/05/11 14:43:16;;;;;;;3.75;1.57;;;;;;;35.10;17.51;100603.03;1797926;77;22592;-67
2021/05/11 14:46:05;;;;;;;5.25;1.27;;;;;;;35.08;17.47;100598.96;1763065;79;21152;-66
2021/05/11 14:48:47;;;;;;;7.90;1.82;;;;;;;34.96;18.08;100603.40;1866540;74;22732;-67
2021/05/11 14:51:22;;;;;;;3.60;1.15;;;;;;;35.08;17.45;100596.23;1866507;74;22723;-66
2021/05/11 14:54:05;;;;;;;4.10;1.47;;;;;;;35.11;17.76;100597.04;1827118;76;22707;-68
2021/05/11 14:56:40;;;;;;;4.72;1.52;;;;;;;34.98;17.65;100589.70;1837674;76;22740;-66
2021/05/11 14:59:25;;;;;;;4.85;1.55;;;;;;;34.98;17.69;100585.60;1764476;78;21153;-66
2021/05/11 15:02:01;;;;;;;5.15;1.55;;;;;;;35.14;17.59;100577.34;1870591;74;22566;-66
2021/05/11 15:04:37;;;;;;;4.72;1.50;;;;;;;35.07;17.54;100580.38;1848857;74;27756;-69
2021/05/11 15:20:20;;;;;;;4.75;1.50;;;;;;;34.49;17.83;100568.58;1865928;74;22734;-69
2021/05/11 15:23:06;;;;;;;5.37;1.75;;;;;;;34.35;18.46;100570.28;1778373;78;21216;-65
2021/05/11 15:25:48;;;;;;;4.10;1.77;;;;;;;34.28;18.94;100562.91;1867126;74;22751;-64
2021/05/11 15:28:29;;;;;;;5.15;1.75;;;;;;;34.39;19.06;100563.16;1827846;76;22685;-67
2021/05/11 15:31:14;;;;;;;4.28;1.95;;;;;;;34.32;19.28;100563.45;1715194;80;21181;-65
2021/05/11 15:33:55;;;;;;;3.83;1.50;;;;;;;33.99;19.40;100564.85;1826386;75;22685;-65
2021/05/11 15:36:35;;;;;;;6.00;2.10;;;;;;;33.46;19.81;100560.48;1878378;74;22675;-66
2021/05/11 15:39:11;;;;;;;5.62;1.70;;;;;;;33.07;20.32;100556.01;1792918;77;22722;-68
2021/05/11 15:41:46;;;;;;;5.08;2.40;;;;;;;32.50;20.94;100557.16;1871107;74;22733;-64
2021/05/11 15:44:27;;;;;;;5.85;1.80;;;;;;;32.10;21.49;100557.76;1751614;79;22762;-67
2021/05/11 15:47:02;;;;;;;4.15;2.00;;;;;;;31.80;21.63;100556.42;1864077;75;22712;-66
2021/05/11 15:49:45;;;;;;;4.37;2.12;;;;;;;31.61;21.99;100552.73;1851916;75;22741;-65
2021/05/11 15:52:30;;;;;;;5.42;1.70;;;;;;;31.43;22.03;100553.90;1808365;77;21168;-66
2021/05/11 15:55:07;;;;;;;5.45;1.82;;;;;;;31.38;22.66;100558.48;1828080;75;23354;-65
2021/05/11 15:57:42;;;;;;;7.03;2.00;;;;;;;31.45;22.28;100553.09;1848981;75;28281;-70
2021/05/11 16:00:30;;;;;;;6.05;2.17;;;;;;;31.63;22.62;100553.30;1849996;75;21159;-65
2021/05/11 16:03:06;;;;;;;5.15;1.90;;;;;;;31.74;22.15;100554.21;1866241;75;22669;-65
2021/05/11 16:05:47;;;;;;;5.53;1.62;;;;;;;31.56;22.35;100545.89;1829294;76;22949;-66
2021/05/11 16:08:25;;;;;;;6.43;2.13;;;;;;;31.41;22.66;100545.19;1794786;76;28646;-67
2021/05/11 16:11:01;;;;;;;5.33;1.70;;;;;;;31.65;22.68;100543.52;1801688;77;27957;-65
2021/05/11 16:13:39;;;;;;;5.37;1.90;;;;;;;31.98;22.31;100541.05;1850090;74;27817;-68
2021/05/11 16:16:20;;;;;;;5.95;1.90;;;;;;;32.19;21.82;100537.92;1862997;74;22681;-65
2021/05/11 16:18:55;;;;;;;5.37;1.52;;;;;;;32.07;22.04;100541.40;1868064;74;22682;-64
2021/05/11 16:21:38;;;;;;;6.33;2.42;;;;;;;31.71;22.10;100531.61;1823412;76;22682;-65
2021/05/11 16:24:22;;;;;;;6.22;1.90;;;;;;;31.33;22.44;100532.61;1825115;76;22829;-65
2021/05/11 16:26:58;;;;;;;8.88;2.05;;;;;;;30.97;23.15;100536.30;1834682;76;22754;-65
2021/05/11 16:29:44;;;;;;;7.03;2.00;;;;;;;30.60;23.67;100541.00;1798279;77;21596;-67
2021/05/11 16:32:19;;;;;;;5.75;1.87;;;;;;;30.16;24.10;100539.88;1871323;75;22687;-65
2021/05/11 16:34:54;;;;;;;4.65;1.82;;;;;;;29.64;24.64;100540.12;1833972;77;22771;-65
2021/05/11 16:37:41;;;;;;;;;;;;;;;29.06;25.51;100550.16;1798910;78;21164;-65
2021/05/11 16:40:17;;;;;;;5.17;1.80;;;;;;;28.51;26.21;100543.34;1848305;74;28369;-65
2021/05/11 16:42:56;;;;;;;7.47;1.82;;;;;;;28.20;26.80;100544.56;1810143;77;23306;-65
2021/05/11 16:45:40;;;;;;;5.53;2.17;;;;;;;27.93;26.78;100545.84;1714713;81;21118;-65
2021/05/11 16:48:16;;;;;;;4.92;1.90;;;;;;;27.39;27.60;100547.18;1835641;76;22638;-64
2021/05/11 16:50:51;;;;;;;4.20;1.60;;;;;;;26.91;28.17;100540.44;1806730;77;27929;-66
2021/05/11 16:53:26;;;;;;;3.98;1.40;;;;;;;26.71;28.64;100543.38;1869732;75;23272;-64
2021/05/11 16:56:02;;;;;;;9.85;1.92;;;;;;;26.58;28.78;100544.31;1848673;75;22725;-65
2021/05/11 16:58:38;;;;;;;7.30;1.75;;;;;;;26.28;29.24;100544.53;1802340;77;22717;-65
2021/05/11 17:01:19;;;;;;;4.20;1.60;;;;;;;26.08;29.45;100549.30;1821936;76;22712;-65
2021/05/11 17:04:06;;;;;;;4.25;1.70;;;;;;;25.86;29.88;100550.19;1874009;74;22693;-63
2021/05/11 17:06:54;;;;;;;8.95;1.90;;;;;;;25.71;30.16;100549.16;1802987;77;22748;-64
2021/05/11 17:09:35;;;;;;;4.92;1.87;;;;;;;25.58;30.50;100555.45;1798381;78;22748;-64
2021/05/11 17:12:21;;;;;;;3.33;1.50;;;;;;;25.44;30.69;100569.55;1769357;80;21171;-63
2021/05/11 17:16:31;;;;;;;5.95;1.85;;;;;;;25.36;30.97;100580.04;1798561;77;23237;-65
2021/05/11 17:19:06;;;;;;;8.70;2.98;;;;;;;25.34;31.29;100584.83;1841633;76;22933;-63
2021/05/11 17:21:54;;;;;;;5.78;2.25;;;;;;;25.30;31.86;100597.58;1804485;78;21555;-64
2021/05/11 17:24:29;;;;;;;9.60;3.10;;;;;;;25.31;32.63;100601.94;1797358;78;22731;-64
2021/05/11 17:27:11;;;;;;;6.67;3.20;;;;;;;25.26;33.14;100594.50;1752696;79;22814;-65
2021/05/11 17:29:58;;;;;;;5.28;3.10;;;;;;;25.21;33.41;100599.67;1732709;80;21220;-65